Time;durP1;ratioP1;P1;durP2;ratioP2;P2;SDS_P1;SDS_P2;PMS_P1;PMS_P2;Temp;Humidity;BMP_temperature;BMP_pressure;BME280_temperature;BME280_humidity;BME280_pressure;Samples;Min_cycle;Max_cycle;Signal;HPM_P1;HPM_P2
2023/07/31 00:01:17;;;;;;;13.82;9.95;;;;;;;21.66;50.29;93436.88;4984563;22;20379;-91
2023/07/31 00:03:43;;;;;;;15.10;9.65;;;;;;;21.66;50.01;93436.13;5019486;28;20100;-91
2023/07/31 00:06:10;;;;;;;14.68;11.60;;;;;;;21.66;50.06;93436.13;5055181;22;20041;-91
2023/07/31 00:08:36;;;;;;;20.05;10.80;;;;;;;21.66;50.16;93438.91;5031847;28;20048;-92
2023/07/31 00:11:01;;;;;;;15.35;9.80;;;;;;;21.69;50.03;93440.59;5014908;28;20033;-91
2023/07/31 00:13:27;;;;;;;17.45;11.18;;;;;;;21.66;49.94;93447.16;5033320;28;20044;-91
2023/07/31 00:15:52;;;;;;;14.73;9.98;;;;;;;21.65;50.13;93445.69;5029508;28;20033;-91
2023/07/31 00:18:18;;;;;;;15.57;9.75;;;;;;;21.62;50.03;93442.00;5052605;28;20036;-91
2023/07/31 00:20:45;;;;;;;16.67;9.88;;;;;;;21.64;50.07;93441.47;5042526;28;20041;-91
2023/07/31 00:23:13;;;;;;;13.52;9.25;;;;;;;21.64;50.21;93449.72;4993857;28;20464;-92
2023/07/31 00:25:39;;;;;;;11.35;8.95;;;;;;;21.66;50.24;93450.63;5042106;23;20048;-91
2023/07/31 00:28:13;;;;;;;12.65;9.23;;;;;;;21.63;50.39;93451.72;5006904;28;20645;-90
2023/07/31 00:30:41;;;;;;;14.07;9.32;;;;;;;21.63;50.27;93446.22;5035764;28;20053;-91
2023/07/31 00:33:08;;;;;;;10.65;8.07;;;;;;;21.63;50.20;93448.97;5051649;28;20420;-92
2023/07/31 00:35:34;;;;;;;13.18;9.73;;;;;;;21.63;50.18;93454.47;5042261;22;20068;-91
2023/07/31 00:37:59;;;;;;;14.52;10.32;;;;;;;21.63;50.11;93450.97;5032369;28;20052;-91
2023/07/31 00:40:25;;;;;;;14.20;8.70;;;;;;;21.64;50.42;93452.47;5031099;28;20050;-90
2023/07/31 00:42:50;;;;;;;14.43;9.75;;;;;;;21.63;50.17;93462.00;5014747;28;20021;-92
2023/07/31 00:45:17;;;;;;;14.35;9.95;;;;;;;21.63;50.00;93459.25;5001977;28;20045;-93
2023/07/31 00:47:52;;;;;;;14.68;10.05;;;;;;;21.63;50.11;93448.22;4998104;28;20045;-91
2023/07/31 00:50:17;;;;;;;15.10;10.00;;;;;;;21.63;50.25;93462.72;5045840;22;20388;-90
2023/07/31 00:52:42;;;;;;;13.70;9.93;;;;;;;21.62;50.27;93457.75;5062713;22;20045;-91
2023/07/31 00:55:08;;;;;;;13.23;9.07;;;;;;;21.71;50.21;93449.78;5018810;28;20048;-91
2023/07/31 00:57:34;;;;;;;17.02;9.02;;;;;;;21.63;50.40;93464.75;5002969;28;20044;-91
2023/07/31 01:00:00;;;;;;;23.23;9.27;;;;;;;21.63;50.59;93470.97;5007781;28;20041;-92
2023/07/31 01:02:28;;;;;;;215.23;150.18;;;;;;;21.64;50.38;93474.47;5018446;28;20050;-91
2023/07/31 01:04:53;;;;;;;155.55;91.43;;;;;;;21.63;50.62;93467.50;5004430;28;20034;-94
2023/07/31 01:07:43;;;;;;;121.60;68.80;;;;;;;21.64;50.44;93463.47;5007112;28;20030;-91
2023/07/31 01:10:26;;;;;;;107.13;29.17;;;;;;;21.63;50.22;93464.75;5023953;28;20018;-91
2023/07/31 01:12:52;;;;;;;57.47;20.98;;;;;;;21.63;50.34;93464.75;5016264;28;20050;-91
2023/07/31 01:15:18;;;;;;;61.72;18.38;;;;;;;21.61;50.26;93470.78;4991769;28;20588;-91
2023/07/31 01:17:46;;;;;;;92.50;16.85;;;;;;;21.62;50.12;93468.75;5035833;22;20054;-92
2023/07/31 01:20:23;;;;;;;63.90;17.95;;;;;;;21.60;50.59;93463.03;5064109;28;20477;-91
2023/07/31 01:23:13;;;;;;;71.82;18.65;;;;;;;21.59;50.55;93458.81;5083834;28;20037;-92
2023/07/31 01:25:52;;;;;;;45.47;15.77;;;;;;;21.59;50.73;93447.81;5054573;28;20174;-91
2023/07/31 01:28:23;;;;;;;43.47;15.52;;;;;;;21.62;50.37;93449.50;5052022;28;20040;-92
2023/07/31 01:30:48;;;;;;;46.35;15.75;;;;;;;21.61;50.51;93442.53;5051692;28;20089;-92
2023/07/31 01:33:16;;;;;;;51.50;16.02;;;;;;;21.62;50.56;93444.75;5039672;28;20037;-91
2023/07/31 01:35:46;;;;;;;55.53;14.73;;;;;;;21.61;50.50;93440.50;5066991;28;20067;-94
2023/07/31 01:38:11;;;;;;;49.45;14.13;;;;;;;21.60;50.74;93438.28;5046980;28;20040;-92
2023/07/31 01:40:37;;;;;;;33.83;13.30;;;;;;;21.60;50.57;93432.78;5057702;28;20040;-91
2023/07/31 01:43:02;;;;;;;26.20;11.23;;;;;;;21.59;50.57;93423.78;5080984;22;20041;-91
2023/07/31 01:45:28;;;;;;;35.80;12.93;;;;;;;21.60;50.43;93427.28;5061960;28;20067;-92
2023/07/31 01:47:53;;;;;;;24.52;12.00;;;;;;;21.56;50.56;93424.84;5017607;28;20032;-91
2023/07/31 01:50:19;;;;;;;24.38;10.80;;;;;;;21.60;50.48;93433.53;5031165;28;20032;-91
2023/07/31 01:52:48;;;;;;;26.52;10.30;;;;;;;21.58;50.43;93436.06;5050313;28;20151;-91
2023/07/31 01:55:13;;;;;;;35.55;11.02;;;;;;;21.59;50.46;93425.81;5031448;28;20596;-91
2023/07/31 01:57:39;;;;;;;24.80;10.88;;;;;;;21.59;50.33;93423.06;5055857;28;20029;-91
2023/07/31 02:00:06;;;;;;;30.65;10.70;;;;;;;21.60;50.54;93421.78;5033147;28;20060;-93
2023/07/31 02:02:32;;;;;;;37.45;11.60;;;;;;;21.60;50.36;93419.78;5029639;28;20037;-92
2023/07/31 02:04:57;;;;;;;25.50;9.77;;;;;;;21.61;50.40;93415.75;5036529;28;20044;-93
2023/07/31 02:07:24;;;;;;;23.67;10.93;;;;;;;21.60;50.43;93419.03;5017560;28;20017;-92
2023/07/31 02:09:51;;;;;;;24.35;10.80;;;;;;;21.58;50.54;93419.56;5043804;28;20033;-91
2023/07/31 02:12:17;;;;;;;19.85;10.05;;;;;;;21.58;50.58;93425.06;5050123;28;20090;-92
2023/07/31 02:14:45;;;;;;;31.65;10.32;;;;;;;21.59;50.76;93418.28;5050857;28;20048;-92
2023/07/31 02:17:10;;;;;;;19.95;8.77;;;;;;;21.59;50.63;93421.03;4990308;28;20034;-91
2023/07/31 02:19:38;;;;;;;22.67;10.10;;;;;;;21.60;50.57;93408.03;4991171;28;20041;-91
2023/07/31 02:22:12;;;;;;;21.60;9.98;;;;;;;21.55;50.93;93415.84;5011019;28;20085;-91
2023/07/31 02:24:38;;;;;;;17.75;8.98;;;;;;;21.59;50.65;93431.31;5007500;28;20088;-91
2023/07/31 02:27:04;;;;;;;24.23;9.38;;;;;;;21.58;50.46;93416.81;5024861;28;20093;-92
2023/07/31 02:29:29;;;;;;;16.92;9.35;;;;;;;21.59;50.46;93406.53;5010584;28;20026;-92
2023/07/31 02:31:59;;;;;;;23.52;10.13;;;;;;;21.58;50.67;93414.06;5051368;22;20071;-91
2023/07/31 02:34:25;;;;;;;20.27;10.10;;;;;;;21.59;50.52;93409.28;5066538;28;20037;-91
2023/07/31 02:39:19;;;;;;;19.90;8.98;;;;;;;21.55;50.58;93404.84;5082546;28;20048;-91
2023/07/31 02:41:47;;;;;;;16.48;8.25;;;;;;;21.55;50.55;93401.38;5034143;28;20037;-91
2023/07/31 02:44:14;;;;;;;18.20;9.60;;;;;;;21.55;50.64;93410.34;5043083;23;20028;-93
2023/07/31 02:46:40;;;;;;;13.38;9.27;;;;;;;21.54;50.89;93406.13;5115338;22;20362;-90
2023/07/31 02:49:10;;;;;;;20.20;8.55;;;;;;;21.55;50.56;93406.88;5127071;28;20058;-91
2023/07/31 02:51:35;;;;;;;15.40;8.25;;;;;;;21.53;50.70;93409.41;5123729;28;20096;-91
2023/07/31 02:54:07;;;;;;;15.70;8.57;;;;;;;21.53;50.77;93403.91;5093001;28;20031;-92
2023/07/31 02:56:32;;;;;;;13.65;8.43;;;;;;;21.53;50.59;93403.91;5104638;28;20050;-91
2023/07/31 02:58:58;;;;;;;19.58;9.00;;;;;;;21.52;50.37;93402.44;5113213;22;20043;-92
2023/07/31 03:01:23;;;;;;;17.67;8.77;;;;;;;21.55;50.71;93401.38;5103196;28;20028;-91
2023/07/31 03:03:50;;;;;;;17.75;8.93;;;;;;;21.51;50.84;93404.44;5107022;28;20087;-91
2023/07/31 03:06:16;;;;;;;16.08;8.32;;;;;;;21.55;50.83;93404.13;5113131;22;20074;-91
2023/07/31 03:08:41;;;;;;;13.30;7.57;;;;;;;21.53;50.71;93410.16;5074528;28;20023;-92
2023/07/31 03:11:07;;;;;;;19.15;9.32;;;;;;;21.54;50.33;93403.38;5083152;22;20047;-91
2023/07/31 03:13:33;;;;;;;20.75;8.82;;;;;;;21.51;50.82;93407.19;5056015;28;20024;-91
2023/07/31 03:15:59;;;;;;;16.30;7.90;;;;;;;21.52;50.72;93399.66;5015015;28;20037;-92
2023/07/31 03:18:25;;;;;;;17.33;9.05;;;;;;;21.53;50.55;93404.66;5046146;28;20049;-91
2023/07/31 03:20:50;;;;;;;16.33;7.78;;;;;;;21.54;50.50;93408.13;5036557;28;20074;-91
2023/07/31 03:23:15;;;;;;;20.33;8.75;;;;;;;21.53;50.50;93401.91;5010975;28;20034;-92
2023/07/31 03:26:04;;;;;;;17.65;8.85;;;;;;;21.54;50.58;93411.63;5019232;28;20025;-91
2023/07/31 03:28:30;;;;;;;19.77;8.02;;;;;;;21.51;50.78;93412.69;5064731;28;20028;-91
2023/07/31 03:31:04;;;;;;;14.85;7.80;;;;;;;21.55;50.32;93412.38;5026145;28;20041;-91
2023/07/31 03:33:30;;;;;;;10.07;6.25;;;;;;;21.48;50.35;93410.25;5029905;28;20037;-92
2023/07/31 03:35:55;;;;;;;15.35;6.35;;;;;;;21.42;50.06;93409.66;5020777;28;20411;-93
2023/07/31 03:38:20;;;;;;;15.15;7.65;;;;;;;21.26;50.12;93416.19;4997905;28;20103;-93
2023/07/31 03:40:46;;;;;;;14.65;9.48;;;;;;;21.21;50.02;93415.06;5015617;28;20046;-92
2023/07/31 03:43:12;;;;;;;12.20;8.15;;;;;;;21.07;50.19;93417.00;5013822;28;20041;-93
2023/07/31 03:45:38;;;;;;;15.73;9.98;;;;;;;21.09;50.00;93408.97;5012855;28;20049;-92
2023/07/31 03:48:07;;;;;;;20.58;9.88;;;;;;;20.96;50.04;93419.25;5035519;28;20033;-91
2023/07/31 03:50:34;;;;;;;17.70;12.73;;;;;;;20.80;50.06;93418.25;5028914;28;20079;-92
2023/07/31 03:53:07;;;;;;;19.35;6.55;;;;;;;20.75;49.91;93419.13;5046642;28;20047;-92
2023/07/31 03:55:33;;;;;;;16.23;7.35;;;;;;;20.87;49.29;93418.38;5065020;28;20040;-91
2023/07/31 03:58:09;;;;;;;13.63;6.80;;;;;;;20.78;49.20;93412.56;5072993;28;20564;-93
2023/07/31 04:00:35;;;;;;;28.00;11.90;;;;;;;20.68;49.43;93412.22;5055202;28;20051;-92
2023/07/31 04:03:01;;;;;;;59.20;25.95;;;;;;;20.50;49.84;93411.03;5063901;28;20119;-91
2023/07/31 04:05:34;;;;;;;33.53;14.68;;;;;;;20.43;49.54;93408.16;5035261;28;20049;-92
2023/07/31 04:08:09;;;;;;;22.98;7.88;;;;;;;20.33;49.49;93413.28;5049416;28;20099;-92
2023/07/31 04:10:38;;;;;;;28.63;9.32;;;;;;;20.24;49.80;93416.41;5052436;28;20044;-92
2023/07/31 04:13:04;;;;;;;21.73;6.40;;;;;;;20.26;49.74;93413.13;5042625;28;20129;-92
2023/07/31 04:15:37;;;;;;;24.13;11.00;;;;;;;20.19;49.93;93411.75;5038643;28;20475;-91
2023/07/31 04:18:06;;;;;;;18.35;5.50;;;;;;;20.14;49.99;93409.81;5071379;28;20417;-93
2023/07/31 04:20:32;;;;;;;15.50;6.65;;;;;;;19.99;50.41;93417.78;5066825;28;20117;-91
2023/07/31 04:22:59;;;;;;;15.48;6.78;;;;;;;20.01;50.30;93416.00;5073334;28;20050;-94
2023/07/31 04:25:26;;;;;;;26.60;12.25;;;;;;;19.95;50.54;93414.59;5029918;28;20040;-91
2023/07/31 04:27:55;;;;;;;22.08;11.55;;;;;;;19.98;50.48;93408.06;5063669;28;20103;-91
2023/07/31 04:30:22;;;;;;;28.33;12.98;;;;;;;19.98;50.64;93408.06;5064376;28;20055;-92
2023/07/31 04:32:57;;;;;;;31.35;14.07;;;;;;;19.87;50.52;93403.50;5079418;28;20096;-91
2023/07/31 04:35:42;;;;;;;34.30;17.33;;;;;;;19.85;50.63;93423.22;5047590;28;20052;-91
2023/07/31 04:38:09;;;;;;;27.60;12.80;;;;;;;19.80;50.74;93423.28;5047633;28;20180;-91
2023/07/31 04:40:36;;;;;;;27.15;11.95;;;;;;;19.84;50.54;93426.47;5049440;28;20033;-91
2023/07/31 04:43:03;;;;;;;25.63;10.65;;;;;;;19.91;50.46;93425.16;5021294;28;20104;-91
2023/07/31 04:45:30;;;;;;;17.30;8.57;;;;;;;19.83;50.59;93428.47;5012268;28;20563;-91
2023/07/31 04:48:08;;;;;;;16.63;8.50;;;;;;;19.83;50.58;93428.47;5026131;28;20532;-92
2023/07/31 04:51:06;;;;;;;15.40;5.80;;;;;;;19.90;50.66;93427.16;5012799;28;20056;-93
2023/07/31 04:53:50;;;;;;;7.55;3.83;;;;;;;19.82;50.45;93424.25;5015682;28;20535;-92
2023/07/31 04:56:37;;;;;;;;;;;;;;;19.77;50.70;93427.81;4986660;28;20056;-93
2023/07/31 04:59:09;;;;;;;6.68;3.67;;;;;;;19.76;50.76;93431.81;4992741;28;19914;-92
2023/07/31 05:01:35;;;;;;;13.52;3.28;;;;;;;19.76;50.88;93429.06;5002829;28;20045;-92
2023/07/31 05:04:07;;;;;;;8.57;3.78;;;;;;;19.77;50.81;93438.03;4970837;28;20493;-92
2023/07/31 05:06:36;;;;;;;7.57;3.20;;;;;;;19.80;50.59;93428.78;5007171;28;20117;-89
2023/07/31 05:09:20;;;;;;;14.60;5.82;;;;;;;19.72;50.78;93420.38;4989118;28;20046;-92
2023/07/31 05:11:50;;;;;;;18.02;8.68;;;;;;;19.70;50.80;93424.94;4973105;28;20046;-93
2023/07/31 05:14:20;;;;;;;15.75;6.65;;;;;;;19.71;50.48;93427.13;4993732;28;20061;-91
2023/07/31 05:16:53;;;;;;;12.73;4.80;;;;;;;19.75;50.55;93422.09;4982141;28;20041;-91
2023/07/31 05:19:21;;;;;;;7.60;3.55;;;;;;;19.76;50.58;93429.06;4976401;28;20037;-92
2023/07/31 05:21:55;;;;;;;30.40;13.73;;;;;;;19.68;50.53;93428.19;4961494;28;20054;-91
2023/07/31 05:24:23;;;;;;;38.33;19.38;;;;;;;19.69;50.59;93421.44;4983306;28;20051;-90
2023/07/31 05:26:50;;;;;;;23.85;14.18;;;;;;;19.70;50.32;93417.41;5005399;28;20045;-91
2023/07/31 05:29:18;;;;;;;27.45;10.80;;;;;;;19.63;50.37;93431.75;4994301;28;20367;-92
2023/07/31 05:31:47;;;;;;;21.65;11.48;;;;;;;19.66;50.25;93414.25;4979248;28;20104;-91
2023/07/31 05:34:12;;;;;;;14.43;5.75;;;;;;;19.56;50.43;93410.38;4997363;28;20053;-91
2023/07/31 05:36:38;;;;;;;15.32;6.03;;;;;;;19.61;50.39;93423.28;5006838;28;20045;-91
2023/07/31 05:39:07;;;;;;;13.23;4.18;;;;;;;19.40;50.74;93422.28;5012629;28;20450;-91
2023/07/31 05:41:34;;;;;;;14.05;4.95;;;;;;;19.45;50.64;93418.72;5007324;28;20196;-91
2023/07/31 05:44:04;;;;;;;10.48;3.92;;;;;;;19.41;50.85;93418.28;5013030;28;20053;-89
2023/07/31 05:46:44;;;;;;;9.50;3.28;;;;;;;19.36;51.16;93410.84;5026390;28;20037;-90
2023/07/31 05:49:10;;;;;;;9.07;2.67;;;;;;;19.49;51.10;93414.41;5000462;28;20061;-91
2023/07/31 05:51:38;;;;;;;4.22;2.83;;;;;;;19.53;50.97;93416.91;5011183;28;20053;-89
2023/07/31 05:54:03;;;;;;;5.57;2.70;;;;;;;19.42;51.09;93422.50;4985981;28;20033;-91
2023/07/31 05:56:30;;;;;;;10.05;3.00;;;;;;;19.47;50.68;93422.44;5043210;28;20040;-90
2023/07/31 05:58:57;;;;;;;6.88;3.00;;;;;;;19.46;50.80;93420.97;5046654;28;20047;-90
2023/07/31 06:01:23;;;;;;;7.30;4.00;;;;;;;19.55;50.72;93435.56;5059595;28;20056;-89
2023/07/31 06:03:49;;;;;;;8.68;3.75;;;;;;;19.50;50.82;93434.38;5043223;28;20115;-90
2023/07/31 06:06:15;;;;;;;13.45;6.90;;;;;;;19.56;51.76;93420.59;5040190;28;20114;-90
2023/07/31 06:08:41;;;;;;;12.65;8.20;;;;;;;19.51;50.22;93433.88;5012373;28;20045;-90
2023/07/31 06:11:08;;;;;;;13.32;6.72;;;;;;;19.55;50.91;93427.34;5036137;28;20032;-89
2023/07/31 06:13:34;;;;;;;18.13;9.80;;;;;;;19.61;50.52;93430.78;5053144;28;20055;-91
2023/07/31 06:15:59;;;;;;;15.68;9.50;;;;;;;19.55;50.81;93428.09;5056011;28;20526;-92
2023/07/31 06:18:25;;;;;;;14.07;9.68;;;;;;;19.69;50.63;93426.94;5037767;28;20036;-90
2023/07/31 06:20:53;;;;;;;14.18;8.60;;;;;;;19.66;50.55;93414.25;5051919;28;20067;-93
2023/07/31 06:23:20;;;;;;;9.18;5.05;;;;;;;19.59;50.65;93412.09;5069393;28;20140;-92
2023/07/31 06:25:46;;;;;;;9.50;5.57;;;;;;;19.72;50.50;93411.41;5038888;28;20036;-89
2023/07/31 06:28:12;;;;;;;5.95;4.05;;;;;;;19.71;50.53;93413.41;5071458;28;20046;-91
2023/07/31 06:30:39;;;;;;;7.28;4.47;;;;;;;19.68;50.80;93421.97;5056353;28;20048;-91
2023/07/31 06:33:04;;;;;;;13.65;4.63;;;;;;;19.69;50.48;93423.44;5050878;28;20045;-91
2023/07/31 06:35:30;;;;;;;14.65;4.35;;;;;;;19.67;50.68;93423.22;5054645;28;20075;-91
2023/07/31 06:37:55;;;;;;;16.45;4.78;;;;;;;19.75;50.57;93418.59;5043761;28;20040;-91
2023/07/31 06:40:21;;;;;;;17.08;4.80;;;;;;;19.77;50.51;93421.56;5053333;28;20398;-91
2023/07/31 06:42:51;;;;;;;17.50;4.25;;;;;;;19.69;50.61;93421.44;5056091;28;20032;-91
2023/07/31 06:45:17;;;;;;;15.95;3.78;;;;;;;19.60;50.74;93426.53;5081996;28;20032;-91
2023/07/31 06:47:48;;;;;;;22.80;4.38;;;;;;;19.65;50.84;93429.22;5080402;28;20127;-91
2023/07/31 06:50:14;;;;;;;25.52;5.63;;;;;;;19.78;50.49;93428.53;5074009;28;20043;-89
2023/07/31 06:52:39;;;;;;;26.15;5.68;;;;;;;19.73;50.50;93424.59;5009679;28;20044;-89
2023/07/31 06:55:24;;;;;;;18.98;4.70;;;;;;;19.74;50.51;93428.09;5030435;28;20040;-90
2023/07/31 06:57:51;;;;;;;18.70;4.75;;;;;;;19.75;50.14;93426.84;5002231;28;20037;-90
2023/07/31 07:00:17;;;;;;;15.02;2.88;;;;;;;19.72;50.32;93423.13;5011907;28;20116;-89
2023/07/31 07:02:42;;;;;;;14.75;3.78;;;;;;;19.72;50.88;93430.63;4997688;28;20072;-87
2023/07/31 07:05:09;;;;;;;17.02;4.47;;;;;;;19.78;50.64;93423.81;5018202;28;20501;-88
2023/07/31 07:07:36;;;;;;;12.50;4.22;;;;;;;19.81;50.87;93417.28;5031285;28;20554;-89
2023/07/31 07:10:03;;;;;;;8.93;3.40;;;;;;;19.80;50.48;93402.09;5056754;28;20277;-91
2023/07/31 07:12:30;;;;;;;16.60;4.45;;;;;;;19.82;49.97;93396.06;5019037;28;20880;-89
2023/07/31 07:14:57;;;;;;;15.43;5.10;;;;;;;19.79;50.11;93400.59;5054470;28;20037;-89
2023/07/31 07:17:23;;;;;;;26.27;5.25;;;;;;;19.82;50.14;93407.03;5030467;28;20048;-89
2023/07/31 07:19:56;;;;;;;16.00;3.85;;;;;;;19.69;50.23;93407.72;5017148;28;20360;-91
2023/07/31 07:22:22;;;;;;;13.73;4.40;;;;;;;19.71;49.89;93404.44;5002069;28;20077;-90
2023/07/31 07:24:47;;;;;;;11.55;4.55;;;;;;;19.85;49.81;93406.75;5012800;28;20037;-90
2023/07/31 07:27:15;;;;;;;24.10;9.48;;;;;;;19.85;49.85;93408.75;4993917;28;20038;-89
2023/07/31 07:29:40;;;;;;;32.92;14.50;;;;;;;19.87;49.68;93408.25;4993131;28;20046;-90
2023/07/31 07:32:09;;;;;;;30.65;10.63;;;;;;;19.87;49.97;93414.47;5003129;28;20052;-91
2023/07/31 07:34:38;;;;;;;41.83;12.18;;;;;;;19.81;49.69;93403.56;5005359;28;20061;-91
2023/07/31 07:37:04;;;;;;;40.50;11.00;;;;;;;19.84;50.02;93401.78;5017788;28;20076;-90
2023/07/31 07:39:31;;;;;;;44.30;11.43;;;;;;;19.81;50.12;93405.56;4994533;28;20125;-91
2023/07/31 07:41:58;;;;;;;33.17;8.73;;;;;;;19.73;50.37;93404.66;4967079;28;20223;-91
2023/07/31 07:44:26;;;;;;;31.88;7.95;;;;;;;19.69;50.59;93407.72;4929769;28;20044;-90
2023/07/31 07:46:58;;;;;;;25.38;8.75;;;;;;;19.70;50.40;93411.22;4946283;28;20038;-91
2023/07/31 07:49:24;;;;;;;28.33;8.15;;;;;;;19.73;50.27;93412.91;4965789;28;20443;-91
2023/07/31 07:51:50;;;;;;;13.60;6.50;;;;;;;19.70;50.48;93411.22;4942976;28;20070;-91
2023/07/31 07:54:20;;;;;;;22.35;9.93;;;;;;;19.70;50.73;93408.47;4960846;28;20098;-91
2023/07/31 07:56:45;;;;;;;21.00;10.10;;;;;;;19.74;50.66;93401.41;4960736;28;20043;-92
2023/07/31 07:59:13;;;;;;;27.13;12.75;;;;;;;19.75;50.27;93408.38;4945799;28;20121;-91
2023/07/31 08:01:38;;;;;;;23.10;13.95;;;;;;;19.81;50.32;93408.31;4949880;28;20528;-90
2023/07/31 08:04:04;;;;;;;58.75;30.20;;;;;;;19.76;50.58;93407.13;4965529;28;20136;-91
2023/07/31 08:06:30;;;;;;;63.10;35.22;;;;;;;19.79;50.29;93397.13;4991188;28;20304;-90
2023/07/31 08:09:06;;;;;;;58.25;34.50;;;;;;;19.81;50.28;93406.31;5007944;28;20431;-90
2023/07/31 08:11:34;;;;;;;93.78;24.98;;;;;;;19.77;50.06;93410.59;5083110;28;20036;-91
2023/07/31 08:14:02;;;;;;;81.20;20.73;;;;;;;19.78;50.28;93404.59;5046819;28;20041;-91
2023/07/31 08:16:28;;;;;;;43.13;14.23;;;;;;;19.80;50.35;93395.84;5029057;28;20044;-91
2023/07/31 08:18:54;;;;;;;23.83;8.45;;;;;;;19.78;50.38;93401.84;5040605;28;20034;-91
2023/07/31 08:21:31;;;;;;;20.50;6.28;;;;;;;19.70;50.56;93411.94;4985032;28;20037;-92
2023/07/31 08:23:57;;;;;;;16.17;6.05;;;;;;;19.74;50.43;93406.16;4985303;28;20188;-90
2023/07/31 08:26:23;;;;;;;22.35;8.45;;;;;;;19.77;50.31;93396.88;4984228;28;20189;-91
2023/07/31 08:28:52;;;;;;;24.58;9.60;;;;;;;19.80;50.27;93410.31;5002729;28;20116;-91
2023/07/31 08:31:18;;;;;;;27.88;8.45;;;;;;;19.78;50.27;93404.59;5020359;28;20124;-90
2023/07/31 08:33:46;;;;;;;37.60;10.57;;;;;;;19.76;50.30;93398.88;5015793;28;20045;-90
2023/07/31 08:36:12;;;;;;;35.15;9.90;;;;;;;19.73;50.51;93404.66;4984376;28;20054;-90
2023/07/31 08:38:39;;;;;;;25.98;7.45;;;;;;;19.67;50.69;93406.75;5015130;28;20038;-90
2023/07/31 08:41:05;;;;;;;24.85;5.93;;;;;;;19.65;50.87;93395.56;4981415;28;20038;-90
2023/07/31 08:43:31;;;;;;;17.08;7.18;;;;;;;19.57;51.26;93405.63;4997948;28;20041;-90
2023/07/31 08:45:56;;;;;;;21.38;8.52;;;;;;;19.62;51.12;93402.09;4984039;28;20039;-90
2023/07/31 08:48:23;;;;;;;18.15;8.18;;;;;;;19.59;51.14;93389.41;4977980;28;20416;-90
2023/07/31 08:50:50;;;;;;;34.15;16.83;;;;;;;19.57;51.32;93395.41;4980116;28;20119;-91
2023/07/31 08:53:16;;;;;;;77.97;33.47;;;;;;;19.61;51.47;93395.13;4998159;28;20042;-91
2023/07/31 08:55:42;;;;;;;80.25;37.25;;;;;;;19.65;51.85;93387.34;5015007;28;20056;-90
2023/07/31 08:58:08;;;;;;;60.53;30.38;;;;;;;19.66;51.45;93389.56;5026933;28;20558;-92
2023/07/31 09:00:34;;;;;;;70.75;26.30;;;;;;;19.67;51.26;93380.09;5044258;28;20105;-91
2023/07/31 09:03:02;;;;;;;95.07;29.58;;;;;;;19.67;51.13;93387.56;5001219;28;20546;-92
2023/07/31 09:05:29;;;;;;;55.67;21.92;;;;;;;19.60;51.51;93388.91;4998579;28;20104;-91
2023/07/31 09:08:04;;;;;;;39.72;17.45;;;;;;;19.59;51.60;93383.94;5002750;28;20045;-91
2023/07/31 09:10:30;;;;;;;39.40;12.75;;;;;;;19.57;52.32;93383.69;5019705;28;20045;-91
2023/07/31 09:12:56;;;;;;;18.92;8.52;;;;;;;19.53;52.10;93378.50;5016508;28;20102;-91
2023/07/31 09:15:23;;;;;;;19.42;8.07;;;;;;;19.52;52.13;93382.50;5015884;28;20036;-91
2023/07/31 09:17:49;;;;;;;22.55;7.35;;;;;;;19.59;52.24;93376.44;5027175;28;20135;-91
2023/07/31 09:20:20;;;;;;;11.98;5.53;;;;;;;19.56;52.24;93379.47;5015435;28;20037;-93
2023/07/31 09:22:47;;;;;;;32.80;12.68;;;;;;;19.70;52.21;93370.06;5011684;28;20064;-90
2023/07/31 09:25:23;;;;;;;20.30;8.98;;;;;;;19.68;51.83;93375.34;5065039;28;20044;-90
2023/07/31 09:27:50;;;;;;;19.20;7.55;;;;;;;19.66;52.00;93372.38;5055550;28;20764;-90
2023/07/31 09:30:17;;;;;;;14.18;6.15;;;;;;;19.66;52.02;93361.41;5072295;28;20076;-91
2023/07/31 09:32:43;;;;;;;24.20;8.98;;;;;;;19.71;51.88;93372.28;5067304;28;20073;-90
2023/07/31 09:35:22;;;;;;;17.88;7.85;;;;;;;19.73;51.67;93367.00;5037919;28;20554;-90
2023/07/31 09:37:50;;;;;;;20.15;8.60;;;;;;;19.78;51.81;93368.19;5036519;28;20086;-91
2023/07/31 09:40:35;;;;;;;30.42;9.85;;;;;;;19.77;51.90;93375.69;5054846;28;20363;-91
2023/07/31 09:43:03;;;;;;;31.98;11.05;;;;;;;19.79;52.37;93370.44;5050706;28;20127;-92
2023/07/31 09:45:29;;;;;;;38.97;11.73;;;;;;;19.82;52.13;93357.66;5054513;28;20036;-92
2023/07/31 09:47:55;;;;;;;33.67;11.40;;;;;;;19.81;52.38;93359.69;5053772;28;20446;-92
2023/07/31 09:50:22;;;;;;;48.20;13.18;;;;;;;19.92;52.11;93371.75;5051942;28;20059;-91
2023/07/31 09:52:47;;;;;;;34.67;13.82;;;;;;;19.92;51.94;93350.53;5035221;28;20032;-90
2023/07/31 09:55:13;;;;;;;44.40;17.48;;;;;;;19.93;52.21;93352.00;5054117;28;20480;-91
2023/07/31 09:57:43;;;;;;;64.50;18.88;;;;;;;19.89;52.37;93356.34;5052420;28;20429;-91
2023/07/31 10:00:09;;;;;;;32.65;10.38;;;;;;;19.95;52.07;93363.19;5057789;28;20087;-91
2023/07/31 10:02:36;;;;;;;23.80;7.72;;;;;;;19.97;50.83;93362.69;5057112;28;20101;-89
2023/07/31 10:05:03;;;;;;;17.65;5.95;;;;;;;19.96;50.77;93355.72;5055085;28;20031;-91
2023/07/31 10:07:37;;;;;;;13.75;5.30;;;;;;;19.93;51.15;93354.75;5060520;28;20043;-92
2023/07/31 10:10:03;;;;;;;11.30;4.25;;;;;;;20.00;50.96;93361.63;5059340;28;20032;-90
2023/07/31 10:12:28;;;;;;;8.18;3.03;;;;;;;19.99;51.09;93346.44;5036326;28;20064;-91
2023/07/31 10:14:57;;;;;;;7.97;2.85;;;;;;;19.92;50.68;93353.25;5052923;28;20047;-91
2023/07/31 10:17:22;;;;;;;6.18;2.95;;;;;;;19.97;51.15;93355.19;5068384;28;21846;-91
2023/07/31 10:19:49;;;;;;;6.57;2.30;;;;;;;19.93;50.78;93341.03;5042461;28;20081;-91
2023/07/31 10:22:14;;;;;;;8.50;2.45;;;;;;;19.95;50.58;93341.25;5052672;28;20052;-91
2023/07/31 10:24:40;;;;;;;6.18;2.75;;;;;;;19.90;50.86;93331.13;5061831;28;20055;-92
2023/07/31 10:27:08;;;;;;;5.93;2.33;;;;;;;19.90;50.73;93335.88;5053516;28;20489;-92
2023/07/31 10:29:36;;;;;;;5.85;2.20;;;;;;;19.98;50.62;93320.25;5077236;28;20051;-91
2023/07/31 10:32:06;;;;;;;2.03;1.77;;;;;;;20.02;50.39;93329.69;5073394;28;20028;-92
2023/07/31 10:34:33;;;;;;;5.22;2.08;;;;;;;19.98;50.28;93320.25;5049062;28;20405;-92
2023/07/31 10:37:31;;;;;;;5.75;2.67;;;;;;;19.94;50.44;93319.81;5044016;28;20071;-91
2023/07/31 10:40:05;;;;;;;3.80;2.00;;;;;;;19.97;50.28;93314.03;5072665;28;20040;-92
2023/07/31 10:42:47;;;;;;;4.25;2.13;;;;;;;20.01;50.87;93314.47;5057240;28;20541;-92
2023/07/31 10:45:12;;;;;;;5.68;2.35;;;;;;;20.05;50.75;93309.41;5093491;28;20570;-91
2023/07/31 10:47:43;;;;;;;6.35;4.13;;;;;;;20.01;51.00;93311.72;5060658;28;20040;-90
2023/07/31 10:50:17;;;;;;;19.63;10.65;;;;;;;20.04;50.78;93315.44;5056316;28;20032;-91
2023/07/31 10:52:46;;;;;;;32.65;17.85;;;;;;;20.08;50.69;93318.63;5034842;28;20101;-92
2023/07/31 10:55:34;;;;;;;27.02;16.75;;;;;;;20.05;50.79;93298.44;5040847;28;20042;-91
2023/07/31 10:58:09;;;;;;;31.85;15.70;;;;;;;20.08;50.63;93304.91;5075337;28;20044;-91
2023/07/31 11:00:42;;;;;;;31.27;13.23;;;;;;;20.08;50.76;93304.91;5055646;28;20524;-91
2023/07/31 11:03:18;;;;;;;41.50;12.55;;;;;;;20.15;50.69;93301.50;5069641;28;20142;-90
2023/07/31 11:05:56;;;;;;;32.22;8.75;;;;;;;20.10;50.72;93300.38;5042280;28;20329;-91
2023/07/31 11:08:28;;;;;;;19.55;7.03;;;;;;;20.13;50.48;93290.34;5070643;28;20040;-91
2023/07/31 11:11:15;;;;;;;36.03;8.57;;;;;;;20.17;50.73;93294.25;5051057;28;20032;-93
2023/07/31 11:14:09;;;;;;;16.08;6.38;;;;;;;20.14;50.15;93284.31;5064288;28;20040;-92
2023/07/31 11:16:35;;;;;;;20.27;7.68;;;;;;;20.16;50.46;93286.53;5060915;28;20036;-91
2023/07/31 11:19:02;;;;;;;20.63;7.78;;;;;;;20.15;50.57;93272.06;5073147;28;20051;-91
2023/07/31 11:21:27;;;;;;;23.10;7.88;;;;;;;20.22;50.75;93275.47;5047542;28;20098;-91
2023/07/31 11:23:56;;;;;;;23.92;8.00;;;;;;;20.20;50.93;93281.47;5057380;28;20498;-93
2023/07/31 11:26:21;;;;;;;16.67;6.85;;;;;;;20.22;51.05;93278.19;5031805;28;20522;-91
2023/07/31 11:28:48;;;;;;;46.15;23.17;;;;;;;20.25;50.85;93277.91;5065381;28;20040;-91
2023/07/31 11:31:13;;;;;;;43.85;23.35;;;;;;;20.28;50.75;93287.09;5061180;28;20029;-91
2023/07/31 11:33:39;;;;;;;41.83;20.88;;;;;;;20.32;50.76;93274.53;5072356;28;20063;-91